createdAt,value
2023-03-01T00:05:50.923Z,13
2023-03-01T00:11:50.935Z,15
2023-03-01T00:17:50.956Z,16
2023-03-01T00:23:50.919Z,16
2023-03-01T00:29:50.969Z,19
2023-03-01T00:35:51.004Z,16
2023-03-01T00:41:50.912Z,16
2023-03-01T00:47:50.925Z,15
2023-03-01T00:53:50.955Z,16
2023-03-01T00:59:50.940Z,15
2023-03-01T01:05:50.941Z,14
2023-03-01T01:11:50.971Z,17
2023-03-01T01:17:50.919Z,16
2023-03-01T01:23:50.956Z,15
2023-03-01T01:29:50.927Z,17
2023-03-01T01:35:50.975Z,17
2023-03-01T01:41:50.894Z,16
2023-03-01T01:47:50.934Z,19
2023-03-01T01:53:50.896Z,18
2023-03-01T01:59:50.909Z,16
2023-03-01T02:05:55.207Z,15
2023-03-01T02:11:50.904Z,17
2023-03-01T02:17:50.901Z,18
2023-03-01T02:23:50.957Z,19
2023-03-01T02:29:50.903Z,19
2023-03-01T02:35:50.902Z,21
2023-03-01T02:41:50.921Z,16
2023-03-01T02:47:50.894Z,17
2023-03-01T02:53:50.876Z,17
2023-03-01T02:59:50.929Z,18
2023-03-01T03:05:50.976Z,19
2023-03-01T03:11:50.888Z,16
2023-03-01T03:17:50.920Z,17
2023-03-01T03:23:50.879Z,19
2023-03-01T03:29:50.906Z,18
2023-03-01T03:35:50.998Z,18
2023-03-01T03:41:50.946Z,17
2023-03-01T03:47:50.891Z,17
2023-03-01T03:53:50.923Z,18
2023-03-01T03:59:50.885Z,18
2023-03-01T04:05:50.887Z,18
2023-03-01T04:11:50.897Z,20
2023-03-01T04:17:50.893Z,22
2023-03-01T04:23:50.863Z,19
2023-03-01T04:29:50.915Z,20
2023-03-01T04:35:51.001Z,19
2023-03-01T04:41:50.868Z,25
2023-03-01T04:47:50.892Z,21
2023-03-01T04:53:50.863Z,22
2023-03-01T04:59:50.865Z,20
2023-03-01T05:05:50.886Z,20
2023-03-01T05:11:50.857Z,19
2023-03-01T05:17:50.856Z,23
2023-03-01T05:23:50.882Z,18
2023-03-01T05:29:50.853Z,20
2023-03-01T05:35:50.942Z,21
2023-03-01T05:41:50.873Z,22
2023-03-01T05:47:50.852Z,23
2023-03-01T05:53:50.859Z,24
2023-03-01T05:59:50.859Z,23
2023-03-01T06:05:51.082Z,21
2023-03-01T06:11:50.836Z,21
2023-03-01T06:17:50.874Z,22
2023-03-01T06:23:50.848Z,23
2023-03-01T06:29:50.850Z,25
2023-03-01T06:35:50.896Z,25
2023-03-01T06:41:50.833Z,22
2023-03-01T06:47:50.860Z,21
2023-03-01T06:53:50.934Z,23
2023-03-01T06:59:50.889Z,25
2023-03-01T07:05:50.846Z,24
2023-03-01T07:11:50.852Z,27
2023-03-01T07:17:50.841Z,22
2023-03-01T07:23:50.841Z,20
2023-03-01T07:29:50.852Z,21
2023-03-01T07:35:50.860Z,21
2023-03-01T07:41:50.800Z,21
2023-03-01T07:47:50.829Z,19
2023-03-01T07:53:50.821Z,20
2023-03-01T07:59:50.819Z,24
2023-03-01T08:05:50.895Z,20
2023-03-01T08:11:50.853Z,21
2023-03-01T08:17:50.811Z,20
2023-03-01T08:23:50.848Z,16
2023-03-01T08:29:50.809Z,15
2023-03-01T08:35:50.841Z,16
2023-03-01T08:41:50.829Z,16
2023-03-01T08:47:50.838Z,14
2023-03-01T08:53:50.834Z,15
2023-03-01T08:59:50.834Z,16
2023-03-01T09:05:50.821Z,15
2023-03-01T09:11:50.831Z,14
2023-03-01T09:17:50.840Z,14
2023-03-01T09:23:50.829Z,14
2023-03-01T09:29:50.816Z,15
2023-03-01T09:35:50.910Z,13
2023-03-01T09:41:50.820Z,13
2023-03-01T09:47:50.890Z,13
2023-03-01T09:53:50.873Z,16
2023-03-01T09:59:50.846Z,16
2023-03-01T10:05:50.833Z,14
2023-03-01T10:11:50.881Z,13
2023-03-01T10:17:50.830Z,15
2023-03-01T10:23:50.813Z,14
2023-03-01T10:29:50.842Z,14
2023-03-01T10:35:50.873Z,13
2023-03-01T10:41:50.827Z,14
2023-03-01T10:47:50.869Z,14
2023-03-01T10:53:50.819Z,13
2023-03-01T10:59:50.820Z,13
2023-03-01T11:05:50.836Z,13
2023-03-01T11:11:50.834Z,13
2023-03-01T11:17:57.116Z,12
2023-03-01T11:23:50.882Z,10
2023-03-01T11:29:50.816Z,12
2023-03-01T11:35:50.857Z,13
2023-03-01T11:41:50.863Z,13
2023-03-01T11:47:50.931Z,13
2023-03-01T11:53:50.842Z,11
2023-03-01T11:59:50.844Z,10
2023-03-01T12:05:50.842Z,11
2023-03-01T12:11:50.824Z,12
2023-03-01T12:17:50.871Z,10
2023-03-01T12:23:50.843Z,9
2023-03-01T12:29:50.822Z,10
2023-03-01T12:35:50.914Z,10
2023-03-01T12:41:50.821Z,11
2023-03-01T12:47:50.823Z,10
2023-03-01T12:53:50.863Z,11
2023-03-01T12:59:50.841Z,11
2023-03-01T13:05:50.821Z,11
2023-03-01T13:11:50.866Z,9
2023-03-01T13:17:50.816Z,12
2023-03-01T13:23:50.823Z,10
2023-03-01T13:29:50.843Z,9
2023-03-01T13:35:50.857Z,12
2023-03-01T13:41:50.829Z,9
2023-03-01T13:47:50.847Z,9
2023-03-01T13:53:50.831Z,15
2023-03-01T13:59:50.819Z,10
2023-03-01T14:05:50.844Z,8
2023-03-01T14:11:50.803Z,8
2023-03-01T14:17:50.812Z,8
2023-03-01T14:23:50.848Z,9
2023-03-01T14:29:50.821Z,11
2023-03-01T14:35:50.850Z,9
2023-03-01T14:41:51.036Z,8
2023-03-01T14:47:50.824Z,9
2023-03-01T14:53:51.628Z,9
2023-03-01T14:59:50.821Z,8
2023-03-01T15:05:50.807Z,9
2023-03-01T15:11:50.814Z,9
2023-03-01T15:17:50.864Z,12
2023-03-01T15:23:52.558Z,8
2023-03-01T15:29:50.798Z,10
2023-03-01T15:35:52.934Z,8
2023-03-01T15:41:50.832Z,11
2023-03-01T15:47:50.806Z,8
2023-03-01T15:53:54.598Z,10
2023-03-01T15:59:50.785Z,10
2023-03-01T16:05:50.807Z,9
2023-03-01T16:11:50.828Z,8
2023-03-01T16:17:50.783Z,10
2023-03-01T16:23:50.789Z,11
2023-03-01T16:29:50.825Z,12
2023-03-01T16:35:50.857Z,10
2023-03-01T16:41:50.813Z,15
2023-03-01T16:47:50.802Z,10
2023-03-01T16:53:50.795Z,12
2023-03-01T16:59:50.783Z,11
2023-03-01T17:05:50.819Z,11
2023-03-01T17:11:50.824Z,10
2023-03-01T17:17:50.793Z,10
2023-03-01T17:23:50.803Z,18
2023-03-01T17:29:50.862Z,15
2023-03-01T17:35:50.834Z,11
2023-03-01T17:41:50.875Z,12
2023-03-01T17:47:50.791Z,10
2023-03-01T17:53:50.821Z,11
2023-03-01T17:59:50.827Z,16
2023-03-01T18:05:50.801Z,16
2023-03-01T18:11:50.791Z,12
2023-03-01T18:17:50.801Z,13
2023-03-01T18:23:50.785Z,14
2023-03-01T18:29:50.838Z,19
2023-03-01T18:35:50.827Z,32
2023-03-01T18:41:50.802Z,14
2023-03-01T18:47:50.780Z,14
2023-03-01T18:53:50.832Z,41
2023-03-01T18:59:50.786Z,33
2023-03-01T19:05:50.800Z,19
2023-03-01T19:11:50.812Z,16
2023-03-01T19:17:52.094Z,15
2023-03-01T19:23:50.780Z,17
2023-03-01T19:29:50.906Z,19
2023-03-01T19:35:50.834Z,16
2023-03-01T19:41:50.788Z,15
2023-03-01T19:47:50.791Z,15
2023-03-01T19:53:50.773Z,13
2023-03-01T19:59:50.755Z,13
2023-03-01T20:05:50.815Z,13
2023-03-01T20:11:50.810Z,15
2023-03-01T20:17:50.789Z,13
2023-03-01T20:23:50.798Z,14
2023-03-01T20:29:50.822Z,14
2023-03-01T20:35:50.749Z,15
2023-03-01T20:41:50.780Z,16
2023-03-01T20:47:50.771Z,16
2023-03-01T20:53:50.775Z,14
2023-03-01T20:59:50.818Z,15
2023-03-01T21:05:50.750Z,15
2023-03-01T21:11:50.758Z,23
2023-03-01T21:17:50.842Z,15
2023-03-01T21:23:50.753Z,18
2023-03-01T21:29:50.757Z,17
2023-03-01T21:35:50.902Z,31
2023-03-01T21:41:50.756Z,17
2023-03-01T21:47:50.750Z,26
2023-03-01T21:53:50.781Z,34
2023-03-01T21:59:50.770Z,22
2023-03-01T22:05:50.752Z,19
2023-03-01T22:11:50.789Z,14
2023-03-01T22:17:50.798Z,15
2023-03-01T22:23:50.733Z,17
2023-03-01T22:29:50.779Z,14
2023-03-01T22:35:50.772Z,19
2023-03-01T22:41:50.765Z,15
2023-03-01T22:47:50.774Z,15
2023-03-01T22:53:50.751Z,19
2023-03-01T22:59:50.742Z,16
2023-03-01T23:05:50.771Z,15
2023-03-01T23:11:50.742Z,19
2023-03-01T23:17:50.756Z,19
2023-03-01T23:23:50.770Z,16
2023-03-01T23:29:50.769Z,16
2023-03-01T23:35:50.778Z,12
2023-03-01T23:41:50.767Z,10
2023-03-01T23:47:50.720Z,12
2023-03-01T23:53:50.738Z,9
2023-03-01T23:59:50.761Z,12
